createdAt,value
2019-04-25T00:01:18.541Z,25.60
2019-04-25T00:04:15.774Z,25.70
2019-04-25T00:07:11.901Z,25.80
2019-04-25T00:10:07.299Z,25.90
2019-04-25T00:13:03.626Z,26.00
2019-04-25T00:15:58.743Z,26.10
2019-04-25T00:18:53.820Z,26.20
2019-04-25T00:22:07.061Z,26.30
2019-04-25T00:25:32.200Z,26.40
2019-04-25T00:28:25.319Z,26.50
2019-04-25T00:31:19.988Z,26.50
2019-04-25T00:34:14.890Z,26.60
2019-04-25T00:37:09.358Z,26.70
2019-04-25T00:40:04.249Z,26.70
2019-04-25T00:42:59.052Z,26.80
2019-04-25T00:45:54.395Z,26.90
2019-04-25T00:48:49.768Z,27.00
2019-04-25T00:51:44.772Z,27.00
2019-04-25T00:54:39.320Z,27.10
2019-04-25T00:57:34.449Z,27.10
2019-04-25T01:00:56.159Z,27.20
2019-04-25T01:03:51.814Z,27.20
2019-04-25T01:06:46.024Z,27.30
2019-04-25T01:09:42.191Z,27.40
2019-04-25T01:12:37.724Z,27.40
2019-04-25T01:15:32.228Z,27.50
2019-04-25T01:18:27.437Z,27.50
2019-04-25T01:21:22.172Z,27.50
2019-04-25T01:24:17.120Z,27.60
2019-04-25T01:27:13.527Z,27.60
2019-04-25T01:30:08.836Z,27.60
2019-04-25T01:33:03.892Z,27.70
2019-04-25T01:36:07.354Z,27.70
2019-04-25T01:39:17.363Z,27.70
2019-04-25T01:42:33.773Z,27.80
2019-04-25T01:45:31.166Z,27.90
2019-04-25T01:48:25.812Z,27.90
2019-04-25T01:51:21.444Z,27.90
2019-04-25T01:54:15.859Z,28.00
2019-04-25T01:57:11.741Z,28.00
2019-04-25T02:00:06.601Z,28.10
2019-04-25T02:03:01.476Z,28.10
2019-04-25T02:05:56.152Z,28.10
2019-04-25T02:08:51.814Z,28.20
2019-04-25T02:12:04.878Z,28.20
2019-04-25T02:14:59.922Z,28.20
2019-04-25T02:17:59.058Z,28.20
2019-04-25T02:20:56.592Z,28.20
2019-04-25T02:23:51.749Z,28.30
2019-04-25T02:26:46.602Z,28.30
2019-04-25T02:29:40.991Z,28.40
2019-04-25T02:32:37.077Z,28.40
2019-04-25T02:35:31.188Z,28.40
2019-04-25T02:38:25.504Z,28.40
2019-04-25T02:41:20.101Z,28.40
2019-04-25T02:44:14.703Z,28.50
2019-04-25T02:47:17.588Z,28.50
2019-04-25T02:50:36.586Z,28.50
2019-04-25T02:53:44.452Z,28.60
2019-04-25T02:56:38.973Z,28.60
2019-04-25T02:59:36.634Z,28.60
2019-04-25T03:02:28.867Z,28.70
2019-04-25T03:05:25.398Z,28.80
2019-04-25T03:08:18.999Z,28.70
2019-04-25T03:11:14.984Z,28.70
2019-04-25T03:14:11.014Z,28.70
2019-04-25T03:17:08.328Z,28.70
2019-04-25T03:20:18.742Z,28.70
2019-04-25T03:23:35.010Z,28.80
2019-04-25T03:26:39.674Z,28.80
2019-04-25T03:29:26.004Z,28.80
2019-04-25T03:32:20.471Z,28.80
2019-04-25T03:35:16.858Z,28.80
2019-04-25T03:38:11.228Z,28.80
2019-04-25T03:41:06.152Z,28.80
2019-04-25T03:44:02.440Z,28.80
2019-04-25T03:47:00.976Z,28.80
2019-04-25T03:49:56.079Z,28.90
2019-04-25T03:52:51.240Z,28.90
2019-04-25T03:55:46.629Z,28.90
2019-04-25T03:58:43.809Z,28.90
2019-04-25T04:01:38.853Z,28.90
2019-04-25T04:04:33.986Z,28.90
2019-04-25T04:07:28.476Z,29.00
2019-04-25T04:10:23.306Z,28.90
2019-04-25T04:13:17.681Z,29.00
2019-04-25T04:16:13.487Z,29.00
2019-04-25T04:19:07.448Z,29.00
2019-04-25T04:22:11.170Z,29.10
2019-04-25T04:25:05.897Z,29.00
2019-04-25T04:28:00.838Z,29.00
2019-04-25T04:30:54.977Z,29.00
2019-04-25T04:33:49.132Z,29.10
2019-04-25T04:36:46.534Z,29.10
2019-04-25T04:39:39.823Z,29.10
2019-04-25T04:42:33.776Z,29.10
2019-04-25T04:45:28.211Z,29.10
2019-04-25T04:48:23.227Z,29.20
2019-04-25T04:51:17.608Z,29.20
2019-04-25T04:54:13.255Z,29.20
2019-04-25T04:57:18.538Z,29.20
2019-04-25T05:00:03.625Z,29.20
2019-04-25T05:03:26.705Z,29.20
2019-04-25T05:06:38.341Z,29.20
2019-04-25T05:09:33.467Z,29.30
2019-04-25T05:12:31.231Z,29.40
2019-04-25T05:15:25.648Z,29.40
2019-04-25T05:18:34.622Z,29.40
2019-04-25T05:21:17.140Z,29.20
2019-04-25T05:24:12.836Z,29.00
2019-04-25T05:27:30.568Z,28.90
2019-04-25T05:30:06.209Z,28.90
2019-04-25T05:33:05.879Z,28.80
2019-04-25T05:36:01.184Z,28.80
2019-04-25T05:38:55.698Z,28.70
2019-04-25T05:56:43.775Z,28.80
2019-04-25T05:59:48.072Z,28.80
2019-04-25T06:02:44.276Z,28.80
2019-04-25T06:05:39.446Z,28.80
2019-04-25T06:08:35.298Z,28.80
2019-04-25T06:11:40.397Z,28.70
2019-04-25T06:14:44.527Z,28.70
2019-04-25T06:17:57.050Z,28.70
2019-04-25T06:20:51.793Z,28.70
2019-04-25T06:24:04.348Z,28.70
2019-04-25T06:27:21.998Z,28.70
2019-04-25T06:30:36.308Z,28.70
2019-04-25T06:33:33.941Z,28.60
2019-04-25T06:36:41.155Z,28.70
2019-04-25T06:39:38.219Z,28.60
2019-04-25T06:42:54.944Z,28.60
2019-04-25T06:46:05.039Z,28.60
2019-04-25T06:49:06.029Z,28.70
2019-04-25T06:52:02.267Z,28.70
2019-04-25T06:55:03.307Z,28.70
2019-04-25T06:58:09.230Z,28.70
2019-04-25T07:01:00.530Z,28.80
2019-04-25T07:03:58.133Z,28.80
2019-04-25T07:06:55.275Z,28.90
2019-04-25T07:09:50.383Z,28.90
2019-04-25T07:12:45.358Z,28.90
2019-04-25T07:15:46.224Z,28.80
2019-04-25T07:18:48.013Z,28.80
2019-04-25T07:21:44.379Z,28.80
2019-04-25T07:24:42.095Z,28.70
2019-04-25T07:27:54.307Z,28.70
2019-04-25T07:31:23.326Z,28.70
2019-04-25T07:34:25.251Z,28.80
2019-04-25T07:37:28.159Z,28.70
2019-04-25T07:40:25.674Z,28.80
2019-04-25T07:43:20.502Z,28.70
2019-04-25T07:46:16.313Z,28.70
2019-04-25T07:49:11.135Z,28.70
2019-04-25T07:52:06.170Z,28.70
2019-04-25T07:55:04.142Z,28.70
2019-04-25T07:57:59.599Z,28.40
2019-04-25T08:00:54.601Z,28.30
2019-04-25T08:03:50.315Z,28.20
2019-04-25T08:06:46.834Z,28.10
2019-04-25T08:09:44.134Z,28.00
2019-04-25T08:12:47.311Z,27.90
2019-04-25T08:15:53.757Z,27.80
2019-04-25T08:18:51.031Z,27.70
2019-04-25T08:21:45.731Z,27.80
2019-04-25T08:24:44.031Z,27.80
2019-04-25T08:27:38.917Z,27.90
2019-04-25T08:30:35.192Z,27.90
2019-04-25T08:33:32.682Z,27.80
2019-04-25T08:36:29.220Z,27.80
2019-04-25T08:39:26.666Z,27.70
2019-04-25T08:42:21.332Z,27.70
2019-04-25T08:45:16.304Z,27.60
2019-04-25T08:48:10.853Z,27.60
2019-04-25T08:51:09.597Z,27.70
2019-04-25T08:54:13.519Z,27.60
2019-04-25T08:57:13.773Z,27.60
2019-04-25T09:00:21.048Z,27.60
2019-04-25T09:03:19.276Z,27.60
2019-04-25T09:06:14.638Z,27.70
2019-04-25T09:09:10.949Z,27.70
2019-04-25T09:12:07.356Z,27.70
2019-04-25T09:15:04.173Z,27.70
2019-04-25T09:18:00.345Z,27.70
2019-04-25T09:20:57.231Z,27.70
2019-04-25T09:23:53.607Z,27.70
2019-04-25T09:26:48.385Z,27.70
2019-04-25T09:29:44.903Z,27.70
2019-04-25T09:32:42.383Z,27.70
2019-04-25T09:35:37.871Z,27.70
2019-04-25T09:38:38.985Z,27.70
2019-04-25T09:41:33.590Z,27.70
2019-04-25T09:44:35.932Z,27.70
2019-04-25T09:47:35.613Z,27.70
2019-04-25T09:50:38.618Z,27.70
2019-04-25T09:53:38.883Z,27.70
2019-04-25T09:56:41.780Z,27.80
2019-04-25T09:59:37.510Z,27.70
2019-04-25T10:02:32.379Z,27.70
2019-04-25T10:05:26.951Z,27.70
2019-04-25T10:08:24.226Z,27.70
2019-04-25T10:11:19.198Z,27.70
2019-04-25T10:15:04.456Z,27.70
2019-04-25T10:18:00.009Z,27.70
2019-04-25T10:20:58.908Z,27.70
2019-04-25T10:23:56.887Z,27.70
2019-04-25T10:26:54.788Z,27.70
2019-04-25T10:29:53.686Z,27.70
2019-04-25T10:32:48.029Z,27.70
2019-04-25T10:35:52.040Z,27.70
2019-04-25T10:38:38.130Z,27.70
2019-04-25T10:41:35.413Z,27.70
2019-04-25T10:44:31.415Z,27.70
2019-04-25T10:47:45.462Z,27.70
2019-04-25T10:50:47.463Z,27.70
2019-04-25T10:53:46.930Z,27.70
2019-04-25T10:56:45.725Z,27.70
2019-04-25T10:59:54.279Z,27.70
2019-04-25T11:02:37.892Z,27.70
2019-04-25T11:05:34.291Z,27.70
2019-04-25T11:08:29.956Z,27.70
2019-04-25T11:11:26.649Z,27.70
2019-04-25T11:14:21.545Z,27.80
2019-04-25T11:17:21.396Z,27.70
2019-04-25T11:20:30.955Z,27.70
2019-04-25T11:23:34.006Z,27.70
2019-04-25T11:26:30.052Z,27.60
2019-04-25T11:29:25.685Z,27.60
2019-04-25T11:32:24.561Z,27.60
2019-04-25T11:35:20.720Z,27.60
2019-04-25T11:38:23.688Z,27.60
2019-04-25T11:41:19.261Z,27.60
2019-04-25T11:44:17.000Z,27.60
2019-04-25T11:47:12.078Z,27.60
2019-04-25T11:50:08.442Z,27.60
2019-04-25T11:53:05.093Z,27.60
2019-04-25T11:56:00.307Z,27.60
2019-04-25T11:58:59.034Z,27.60
2019-04-25T12:02:20.838Z,27.60
2019-04-25T12:05:20.122Z,27.50
2019-04-25T12:08:17.276Z,27.50
2019-04-25T12:11:13.891Z,27.50
2019-04-25T12:14:09.268Z,27.50
2019-04-25T12:17:04.394Z,27.50
2019-04-25T12:19:59.615Z,27.40
2019-04-25T12:23:06.364Z,27.50
2019-04-25T12:25:51.925Z,27.50
2019-04-25T12:28:47.427Z,27.40
2019-04-25T12:31:44.219Z,27.30
2019-04-25T12:34:39.439Z,27.40
2019-04-25T12:37:34.978Z,27.40
2019-04-25T12:40:30.683Z,27.40
2019-04-25T12:43:27.418Z,27.40
2019-04-25T12:46:45.923Z,27.40
2019-04-25T12:49:43.661Z,27.40
2019-04-25T12:52:39.503Z,27.30
2019-04-25T12:55:36.318Z,27.30
2019-04-25T12:58:33.451Z,27.30
2019-04-25T13:01:29.363Z,27.40
2019-04-25T13:04:24.022Z,27.30
2019-04-25T13:07:20.236Z,27.30
2019-04-25T13:10:15.568Z,27.40
2019-04-25T13:13:10.840Z,27.50
2019-04-25T13:16:05.409Z,27.50
2019-04-25T13:19:13.428Z,27.80
2019-04-25T13:21:58.652Z,28.10
2019-04-25T13:24:56.190Z,28.30
2019-04-25T13:28:04.046Z,28.50
2019-04-25T13:31:15.075Z,28.60
2019-04-25T13:34:18.240Z,28.70
2019-04-25T13:37:14.158Z,28.80
2019-04-25T13:40:10.040Z,28.90
2019-04-25T13:43:06.195Z,28.90
2019-04-25T13:46:01.219Z,28.90
2019-04-25T13:48:56.007Z,28.90
2019-04-25T13:51:50.609Z,29.00
2019-04-25T13:54:45.406Z,29.00
2019-04-25T13:57:40.320Z,29.00
2019-04-25T14:00:36.733Z,29.00
2019-04-25T14:03:33.759Z,29.00
2019-04-25T14:06:30.384Z,29.00
2019-04-25T14:09:25.866Z,29.00
2019-04-25T14:12:21.437Z,29.10
2019-04-25T14:15:19.064Z,29.10
2019-04-25T14:18:31.592Z,29.10
2019-04-25T14:21:27.239Z,29.00
2019-04-25T14:24:22.907Z,29.10
2019-04-25T14:27:17.393Z,29.10
2019-04-25T14:30:13.531Z,29.10
2019-04-25T14:33:07.847Z,29.10
2019-04-25T14:36:03.201Z,29.10
2019-04-25T14:38:57.930Z,29.10
2019-04-25T14:41:55.055Z,29.20
2019-04-25T14:44:49.790Z,29.20
2019-04-25T14:47:44.290Z,29.10
2019-04-25T14:50:39.686Z,29.10
2019-04-25T14:53:35.205Z,29.20
2019-04-25T14:56:46.749Z,29.20
2019-04-25T14:59:42.746Z,29.20
2019-04-25T15:02:38.108Z,29.20
2019-04-25T15:05:33.404Z,29.20
2019-04-25T15:08:28.545Z,29.20
2019-04-25T15:11:24.431Z,29.20
2019-04-25T15:14:19.367Z,29.20
2019-04-25T15:17:14.212Z,29.20
2019-04-25T15:20:09.785Z,29.20
2019-04-25T15:23:04.384Z,29.20
2019-04-25T15:25:59.208Z,29.20
2019-04-25T15:28:54.360Z,29.20
2019-04-25T15:31:56.190Z,29.20
2019-04-25T15:34:54.640Z,29.30
2019-04-25T15:37:56.872Z,29.30
2019-04-25T15:41:02.086Z,29.30
2019-04-25T15:44:33.926Z,29.30
2019-04-25T15:47:30.467Z,29.30
2019-04-25T15:50:26.302Z,29.30
2019-04-25T15:53:20.874Z,29.30
2019-04-25T15:56:15.655Z,29.30
2019-04-25T15:59:10.142Z,29.30
2019-04-25T16:02:09.456Z,29.30
2019-04-25T16:05:03.744Z,29.30
2019-04-25T16:07:59.996Z,29.30
2019-04-25T16:10:54.291Z,29.30
2019-04-25T16:13:50.639Z,29.30
2019-04-25T16:16:46.647Z,29.30
2019-04-25T16:19:42.210Z,29.40
2019-04-25T16:22:38.661Z,29.30
2019-04-25T16:25:33.359Z,29.40
2019-04-25T16:28:28.817Z,29.30
2019-04-25T16:31:28.104Z,29.40
2019-04-25T16:34:23.692Z,29.40
2019-04-25T16:37:18.637Z,29.40
2019-04-25T16:40:13.627Z,29.40
2019-04-25T16:43:10.422Z,29.40
2019-04-25T16:46:04.733Z,29.40
2019-04-25T16:48:59.598Z,29.40
2019-04-25T16:51:53.965Z,29.40
2019-04-25T16:54:48.173Z,29.40
2019-04-25T16:57:43.921Z,29.40
2019-04-25T17:01:05.591Z,29.40
2019-04-25T17:03:59.948Z,29.40
2019-04-25T17:06:54.819Z,29.40
2019-04-25T17:09:49.380Z,29.40
2019-04-25T17:12:45.734Z,29.40
2019-04-25T17:16:04.080Z,29.40
2019-04-25T17:19:10.959Z,29.40
2019-04-25T17:22:05.292Z,29.40
2019-04-25T17:24:59.534Z,29.40
2019-04-25T17:27:56.328Z,29.50
2019-04-25T17:30:54.425Z,29.40
2019-04-25T17:33:58.917Z,29.10
2019-04-25T17:37:18.744Z,28.70
2019-04-25T17:40:16.295Z,28.40
2019-04-25T17:43:11.735Z,28.20
2019-04-25T17:46:07.447Z,28.00
2019-04-25T17:49:03.157Z,27.80
2019-04-25T17:51:57.691Z,27.90
2019-04-25T17:54:52.504Z,27.80
2019-04-25T17:57:47.827Z,27.70
2019-04-25T18:00:45.066Z,27.70
2019-04-25T18:03:39.745Z,27.60
2019-04-25T18:06:34.370Z,27.50
2019-04-25T18:09:30.139Z,27.50
2019-04-25T18:12:25.030Z,27.40
2019-04-25T18:15:24.838Z,27.30
2019-04-25T18:18:37.044Z,27.30
2019-04-25T18:21:36.766Z,27.20
2019-04-25T18:24:48.853Z,27.10
2019-04-25T18:27:53.226Z,27.00
2019-04-25T18:30:48.193Z,27.00
2019-04-25T18:33:43.877Z,26.90
2019-04-25T18:36:56.535Z,26.90
2019-04-25T18:39:58.386Z,26.90
2019-04-25T18:43:09.811Z,26.80
2019-04-25T18:46:08.740Z,26.70
2019-04-25T18:49:03.601Z,26.70
2019-04-25T18:52:00.104Z,26.70
2019-04-25T18:55:03.749Z,26.60
2019-04-25T18:58:16.655Z,26.50
2019-04-25T19:01:28.475Z,26.50
2019-04-25T19:04:41.818Z,26.50
2019-04-25T19:07:36.722Z,26.40
2019-04-25T19:10:51.459Z,26.40
2019-04-25T19:13:46.204Z,26.50
2019-04-25T19:16:41.144Z,26.70
2019-04-25T19:19:36.711Z,26.80
2019-04-25T19:22:31.140Z,26.70
2019-04-25T19:25:25.619Z,26.60
2019-04-25T19:28:20.449Z,26.50
2019-04-25T19:31:15.256Z,26.40
2019-04-25T19:34:10.088Z,26.30
2019-04-25T19:37:04.662Z,26.30
2019-04-25T19:40:17.302Z,26.20
2019-04-25T19:43:25.809Z,26.20
2019-04-25T19:46:22.269Z,26.20
2019-04-25T19:49:17.301Z,26.10
2019-04-25T19:52:12.375Z,26.10
2019-04-25T19:55:11.011Z,26.00
2019-04-25T19:58:06.061Z,26.00
2019-04-25T20:01:00.471Z,26.00
2019-04-25T20:04:07.711Z,25.90
2019-04-25T20:07:29.067Z,25.90
2019-04-25T20:10:42.600Z,25.80
2019-04-25T20:13:36.966Z,25.80
2019-04-25T20:16:32.332Z,25.80
2019-04-25T20:19:26.678Z,25.80
2019-04-25T20:22:20.895Z,25.80
2019-04-25T20:25:15.491Z,25.70
2019-04-25T20:28:09.699Z,25.70
2019-04-25T20:31:03.901Z,25.70
2019-04-25T20:34:05.234Z,25.60
2019-04-25T20:36:54.083Z,25.60
2019-04-25T20:39:49.363Z,25.60
2019-04-25T20:42:43.965Z,25.50
2019-04-25T20:45:38.305Z,25.50
2019-04-25T20:48:32.429Z,25.50
2019-04-25T20:51:27.097Z,25.50
2019-04-25T20:54:21.374Z,25.40
2019-04-25T20:57:15.699Z,25.40
2019-04-25T21:00:13.018Z,25.40
2019-04-25T21:03:07.954Z,25.40
2019-04-25T21:06:11.602Z,25.40
2019-04-25T21:09:07.392Z,25.40
2019-04-25T21:12:03.281Z,25.40
2019-04-25T21:15:19.316Z,25.30
2019-04-25T21:18:41.255Z,25.30
2019-04-25T21:21:35.687Z,25.30
2019-04-25T21:24:29.763Z,25.30
2019-04-25T21:27:24.199Z,25.30
2019-04-25T21:30:18.774Z,25.20
2019-04-25T21:33:13.222Z,25.30
2019-04-25T21:36:07.708Z,25.20
2019-04-25T21:39:02.218Z,25.20
2019-04-25T21:42:04.598Z,25.20
2019-04-25T21:44:59.020Z,25.20
2019-04-25T21:47:53.927Z,25.20
2019-04-25T21:50:49.163Z,25.20
2019-04-25T21:53:43.577Z,25.10
2019-04-25T21:56:38.266Z,25.10
2019-04-25T21:59:32.998Z,25.10
2019-04-25T22:02:27.219Z,25.10
2019-04-25T22:05:23.018Z,25.10
2019-04-25T22:08:17.705Z,25.00
2019-04-25T22:11:12.201Z,25.00
2019-04-25T22:14:07.036Z,25.00
2019-04-25T22:17:01.873Z,25.00
2019-04-25T22:19:57.206Z,25.00
2019-04-25T22:22:52.448Z,25.00
2019-04-25T22:25:46.976Z,25.00
2019-04-25T22:28:41.719Z,25.00
2019-04-25T22:31:41.516Z,24.90
2019-04-25T22:34:52.581Z,24.90
2019-04-25T22:37:42.667Z,24.90
2019-04-25T22:40:37.999Z,24.90
2019-04-25T22:43:34.364Z,24.90
2019-04-25T22:46:28.942Z,24.90
2019-04-25T22:49:24.326Z,24.80
2019-04-25T22:52:18.793Z,24.90
2019-04-25T22:55:13.212Z,24.80
2019-04-25T22:58:07.895Z,24.80
2019-04-25T23:01:03.231Z,24.80
2019-04-25T23:03:59.406Z,24.80
2019-04-25T23:06:55.038Z,24.80
2019-04-25T23:09:50.706Z,24.90
2019-04-25T23:12:45.255Z,25.10
2019-04-25T23:15:39.539Z,25.40
2019-04-25T23:18:34.651Z,25.60
2019-04-25T23:21:29.216Z,25.70
2019-04-25T23:24:24.841Z,25.80
2019-04-25T23:27:41.677Z,25.90
2019-04-25T23:30:53.886Z,26.00
2019-04-25T23:33:48.382Z,26.20
2019-04-25T23:36:43.578Z,26.20
2019-04-25T23:39:38.106Z,26.30
2019-04-25T23:42:32.870Z,26.30
2019-04-25T23:45:27.215Z,26.40
2019-04-25T23:48:21.830Z,26.50
2019-04-25T23:51:16.066Z,26.60
2019-04-25T23:54:10.891Z,26.70
2019-04-25T23:57:05.123Z,26.70
